Time;durP1;ratioP1;P1;durP2;ratioP2;P2;SDS_P1;SDS_P2;PMS_P1;PMS_P2;Temp;Humidity;BMP_temperature;BMP_pressure;BME280_temperature;BME280_humidity;BME280_pressure;Samples;Min_cycle;Max_cycle;Signal;HPM_P1;HPM_P2
2022/12/19 00:00:15;;;;;;;;;;;;;;;-2.94;69.46;99137.44;5090658;28;19944;-62
2022/12/19 00:02:43;;;;;;;;;;;;;;;-2.90;69.61;99120.09;5085682;28;20295;-63
2022/12/19 00:05:12;;;;;;;;;;;;;;;-2.94;68.96;99117.00;5105067;28;20041;-63
2022/12/19 00:07:41;;;;;;;;;;;;;;;-2.95;69.18;99125.19;5083316;28;19934;-63
2022/12/19 00:10:10;;;;;;;;;;;;;;;-3.12;69.55;99115.88;5097430;28;20623;-62
2022/12/19 00:12:38;;;;;;;;;;;;;;;-3.15;69.87;99122.38;5082756;28;19924;-62
2022/12/19 00:15:07;;;;;;;;;;;;;;;-3.13;70.15;99114.22;5086313;28;20402;-65
2022/12/19 00:17:36;;;;;;;;;;;;;;;-3.09;69.40;99110.16;5090767;28;19924;-62
2022/12/19 00:20:04;;;;;;;;;;;;;;;-3.16;69.24;99107.44;5090933;28;19969;-69
2022/12/19 00:22:32;;;;;;;;;;;;;;;-3.14;69.12;99099.28;5090501;28;19935;-63
2022/12/19 00:25:01;;;;;;;;;;;;;;;-3.20;69.44;99106.19;5106197;27;19924;-63
2022/12/19 00:27:31;;;;;;;;;;;;;;;-3.24;69.00;99105.78;5103989;27;19968;-63
2022/12/19 00:30:00;;;;;;;;;;;;;;;-3.23;69.05;99094.13;5123660;27;20121;-65
2022/12/19 00:32:29;;;;;;;;;;;;;;;-3.28;69.50;99066.47;5111075;27;19923;-62
2022/12/19 00:34:59;;;;;;;;;;;;;;;-3.37;69.58;99052.50;5109014;27;20289;-63
2022/12/19 00:37:28;;;;;;;;;;;;;;;-3.24;69.43;99103.13;5110024;27;20031;-62
2022/12/19 00:39:56;;;;;;;;;;;;;;;-3.32;69.63;99095.25;5111662;27;19927;-62
2022/12/19 00:42:24;;;;;;;;;;;;;;;-3.34;70.82;99104.47;5129821;27;19928;-63
2022/12/19 00:44:52;;;;;;;;;;;;;;;-3.33;70.85;99098.94;5127008;27;19965;-63
2022/12/19 00:50:15;;;;;;;;;;;;;;;-3.29;71.22;99094.91;5126459;27;19924;-62
2022/12/19 00:52:44;;;;;;;;;;;;;;;-3.27;70.61;99098.16;5130575;27;19931;-63
2022/12/19 00:55:12;;;;;;;;;;;;;;;-3.28;69.93;99095.72;5113215;27;19923;-63
2022/12/19 00:58:10;;;;;;;;;;;;;;;-3.29;70.39;99092.25;5126924;27;19938;-62
2022/12/19 01:00:40;;;;;;;;;;;;;;;-3.36;70.11;99078.06;5134460;27;20369;-62
2022/12/19 01:03:08;;;;;;;;;;;;;;;-3.31;70.40;99080.97;5115144;27;20414;-62
2022/12/19 01:05:37;;;;;;;;;;;;;;;-3.32;70.79;99087.28;5128586;27;19945;-64
2022/12/19 01:08:05;;;;;;;;;;;;;;;-3.29;69.62;99099.38;5109444;27;19930;-63
2022/12/19 01:10:34;;;;;;;;;;;;;;;-3.36;70.42;99120.56;5122630;27;19933;-62
2022/12/19 01:13:01;;;;;;;;;;;;;;;-3.32;70.15;99105.91;5102103;27;19930;-65
2022/12/19 01:15:29;;;;;;;;;;;;;;;-3.42;70.98;99097.44;5123765;27;19924;-62
2022/12/19 01:17:57;;;;;;;;;;;;;;;-3.43;70.75;99099.28;5109988;27;19932;-63
2022/12/19 01:20:27;;;;;;;;;;;;;;;-3.25;70.77;99114.75;5098153;28;19927;-64
2022/12/19 01:22:58;;;;;;;;;;;;;;;-3.28;70.87;99109.81;5131049;27;19977;-65
2022/12/19 01:25:28;;;;;;;;;;;;;;;-3.24;70.65;99113.75;5099747;28;20289;-62
2022/12/19 01:28:21;;;;;;;;;;;;;;;-3.19;70.67;99115.81;5076955;28;19928;-66
2022/12/19 01:30:49;;;;;;;;;;;;;;;-3.28;70.81;99106.34;5072569;28;20361;-63
2022/12/19 01:33:19;;;;;;;;;;;;;;;-3.17;71.01;99097.84;5089747;28;19924;-63
2022/12/19 01:35:48;;;;;;;;;;;;;;;-3.12;70.75;99095.41;5089903;28;19935;-68
2022/12/19 01:38:17;;;;;;;;;;;;;;;-2.98;71.26;99099.00;5083402;28;19931;-63
2022/12/19 01:40:49;;;;;;;;;;;;;;;-3.04;70.26;99092.59;5089067;28;19928;-63
2022/12/19 01:43:20;;;;;;;;;;;;;;;-3.03;70.73;99085.47;5090162;28;19928;-62
2022/12/19 01:45:49;;;;;;;;;;;;;;;-3.10;70.92;99076.59;5080547;28;19931;-64
2022/12/19 01:48:19;;;;;;;;;;;;;;;-3.11;70.41;99090.91;5090765;28;19993;-64
2022/12/19 01:50:54;;;;;;;;;;;;;;;-3.21;70.93;99088.59;5084179;28;19935;-63
2022/12/19 01:53:24;;;;;;;;;;;;;;;-3.14;70.49;99096.63;5089210;28;19989;-62
2022/12/19 01:55:52;;;;;;;;;;;;;;;-3.16;70.94;99097.63;5087467;28;19924;-62
2022/12/19 01:58:21;;;;;;;;;;;;;;;-3.01;70.57;99088.75;5088574;28;19932;-65
2022/12/19 02:00:51;;;;;;;;;;;;;;;-3.08;70.60;99083.38;5077676;28;19931;-64
2022/12/19 02:03:20;;;;;;;;;;;;;;;-3.06;70.37;99089.31;5085297;28;19935;-65
2022/12/19 02:05:50;;;;;;;;;;;;;;;-3.13;70.44;99092.97;5088632;28;19924;-66
2022/12/19 02:08:19;;;;;;;;;;;;;;;-3.13;70.67;99090.31;5086229;28;20419;-62
2022/12/19 02:10:48;;;;;;;;;;;;;;;-3.08;70.98;99095.88;5083101;28;20358;-63
2022/12/19 02:13:17;;;;;;;;;;;;;;;-3.09;71.23;99102.16;5083768;28;19930;-62
2022/12/19 02:15:46;;;;;;;;;;;;;;;-3.08;70.82;99095.88;5082964;28;19967;-62
2022/12/19 02:21:16;;;;;;;;;;;;;;;-3.17;70.94;99095.19;5083163;28;19931;-63
2022/12/19 02:23:59;;;;;;;;;;;;;;;-3.18;71.38;99101.50;5085577;28;19925;-65
2022/12/19 02:26:33;;;;;;;;;;;;;;;-3.05;70.96;99098.94;5102940;28;20425;-63
2022/12/19 02:29:08;;;;;;;;;;;;;;;-3.04;71.28;99100.56;5096399;28;19924;-63
2022/12/19 02:31:38;;;;;;;;;;;;;;;-2.96;70.64;99099.63;5099237;28;19924;-64
2022/12/19 02:34:08;;;;;;;;;;;;;;;-3.15;71.74;99093.13;5098124;28;19930;-63
2022/12/19 02:36:44;;;;;;;;;;;;;;;-3.07;71.97;99097.50;5113357;28;19965;-62
2022/12/19 02:39:15;;;;;;;;;;;;;;;-3.09;71.52;99089.72;5110615;28;19932;-62
2022/12/19 02:41:47;;;;;;;;;;;;;;;-3.23;71.00;99090.66;5102490;28;19924;-63
2022/12/19 02:44:21;;;;;;;;;;;;;;;-3.04;71.32;99105.88;5108944;28;19928;-64
2022/12/19 02:46:51;;;;;;;;;;;;;;;-3.05;71.32;99100.78;5101492;28;19925;-62
2022/12/19 02:49:19;;;;;;;;;;;;;;;-2.98;71.87;99102.47;5110697;28;19958;-63
2022/12/19 02:51:48;;;;;;;;;;;;;;;-3.01;71.09;99100.19;5109616;28;19928;-62
2022/12/19 02:54:16;;;;;;;;;;;;;;;-2.95;71.37;99093.28;5109008;28;19931;-70
2022/12/19 02:56:45;;;;;;;;;;;;;;;-2.99;71.14;99090.19;5109240;28;20030;-65
2022/12/19 02:59:34;;;;;;;;;;;;;;;-3.01;71.21;99088.75;5109557;28;19930;-64
2022/12/19 03:02:05;;;;;;;;;;;;;;;-2.91;71.62;99091.88;5102683;28;19927;-62
2022/12/19 03:04:36;;;;;;;;;;;;;;;-2.95;71.58;99109.22;5110980;28;19938;-63
2022/12/19 03:07:08;;;;;;;;;;;;;;;-3.08;71.30;99107.31;5096028;28;19981;-69
2022/12/19 03:09:39;;;;;;;;;;;;;;;-3.02;72.30;99106.53;5107713;27;19955;-66
2022/12/19 03:12:07;;;;;;;;;;;;;;;-3.00;71.14;99093.03;5108350;28;19924;-62
2022/12/19 03:14:38;;;;;;;;;;;;;;;-3.01;70.94;99060.31;5109517;28;19966;-62
2022/12/19 03:17:08;;;;;;;;;;;;;;;-3.12;71.88;99055.53;5102973;28;19930;-62
2022/12/19 03:19:38;;;;;;;;;;;;;;;-3.03;71.78;99077.50;5102142;28;20358;-63
2022/12/19 03:22:06;;;;;;;;;;;;;;;-3.05;71.72;99068.88;5102875;28;19923;-63
2022/12/19 03:24:34;;;;;;;;;;;;;;;-3.03;72.17;99066.84;5094497;27;20466;-62
2022/12/19 03:27:04;;;;;;;;;;;;;;;-3.04;71.92;99057.22;5091766;28;20312;-62
2022/12/19 03:29:32;;;;;;;;;;;;;;;-3.01;72.21;99036.38;5091472;28;19970;-62
2022/12/19 03:32:01;;;;;;;;;;;;;;;-3.14;72.61;99054.09;5088286;28;19924;-62
2022/12/19 03:34:31;;;;;;;;;;;;;;;-3.00;72.27;99050.50;5081902;28;19928;-62
2022/12/19 03:37:00;;;;;;;;;;;;;;;-3.07;73.08;99061.09;5080028;28;19925;-62
2022/12/19 03:39:54;;;;;;;;;;;;;;;-3.01;72.63;99059.50;5079620;28;20293;-69
2022/12/19 03:45:09;;;;;;;;;;;;;;;-2.90;72.59;99077.56;5080307;28;19925;-63
2022/12/19 03:47:38;;;;;;;;;;;;;;;-2.86;73.08;99083.31;5084912;28;20342;-62
2022/12/19 03:50:08;;;;;;;;;;;;;;;-2.86;73.11;99086.78;5084346;28;19935;-66
2022/12/19 03:52:39;;;;;;;;;;;;;;;-2.71;71.86;99076.84;5090136;28;19928;-63
2022/12/19 03:55:08;;;;;;;;;;;;;;;-2.79;71.28;99055.72;5090815;28;20256;-69
2022/12/19 03:57:37;;;;;;;;;;;;;;;-2.82;71.41;99034.88;5083319;28;19938;-65
2022/12/19 04:00:06;;;;;;;;;;;;;;;-2.84;72.24;99007.63;5076717;28;19928;-62
2022/12/19 04:02:41;;;;;;;;;;;;;;;-2.91;71.58;98965.06;5083530;28;19943;-62
2022/12/19 04:05:12;;;;;;;;;;;;;;;-2.83;72.29;99030.53;5091353;28;19924;-62
2022/12/19 04:07:40;;;;;;;;;;;;;;;-3.03;73.02;99025.13;5072831;28;19924;-62
2022/12/19 04:10:09;;;;;;;;;;;;;;;-2.96;72.61;98993.25;5079825;28;19931;-63
2022/12/19 04:12:39;;;;;;;;;;;;;;;-2.95;72.96;98976.28;5084379;28;20283;-63
2022/12/19 04:15:07;;;;;;;;;;;;;;;-2.87;72.70;99017.84;5089685;28;19924;-63
2022/12/19 04:17:36;;;;;;;;;;;;;;;-2.84;73.09;99086.59;5090932;28;19937;-64
2022/12/19 04:20:06;;;;;;;;;;;;;;;-2.87;73.03;99049.78;5093573;28;19935;-63
2022/12/19 04:22:36;;;;;;;;;;;;;;;-2.85;72.48;99053.03;5092547;28;19924;-64
2022/12/19 04:25:06;;;;;;;;;;;;;;;-2.77;72.74;99082.97;5109763;27;19934;-62
2022/12/19 04:27:34;;;;;;;;;;;;;;;-2.73;72.54;99046.13;5128134;27;20355;-63
2022/12/19 04:30:02;;;;;;;;;;;;;;;-2.75;72.51;99070.28;5112547;27;19932;-67
2022/12/19 04:32:33;;;;;;;;;;;;;;;-2.74;72.69;99049.81;5112018;27;20360;-65
2022/12/19 04:35:01;;;;;;;;;;;;;;;-2.67;72.34;99038.19;5121173;27;19923;-63
2022/12/19 04:37:31;;;;;;;;;;;;;;;-2.58;72.41;99056.63;5132210;27;19935;-62
2022/12/19 04:40:03;;;;;;;;;;;;;;;-2.65;72.20;99033.50;5123722;27;20019;-66
2022/12/19 04:42:31;;;;;;;;;;;;;;;-2.69;72.85;99029.59;5124895;27;19928;-63
2022/12/19 04:44:59;;;;;;;;;;;;;;;-2.72;72.58;99048.59;5122747;27;19934;-65
2022/12/19 04:47:34;;;;;;;;;;;;;;;-2.59;71.75;99021.25;5125807;27;20022;-62
2022/12/19 04:50:02;;;;;;;;;;;;;;;-2.55;72.45;99034.97;5123670;27;19938;-64
2022/12/19 04:52:31;;;;;;;;;;;;;;;-2.60;72.35;99037.41;5127541;27;20049;-62
2022/12/19 04:54:58;;;;;;;;;;;;;;;-2.53;72.05;99043.56;5109518;27;19938;-63
2022/12/19 04:57:29;;;;;;;;;;;;;;;-2.53;72.44;99056.88;5127575;27;19961;-63
2022/12/19 04:59:58;;;;;;;;;;;;;;;-2.56;72.92;99089.19;5130812;27;19923;-62
2022/12/19 05:02:26;;;;;;;;;;;;;;;-2.61;72.21;99080.97;5102908;27;20418;-62
2022/12/19 05:04:54;;;;;;;;;;;;;;;-2.58;73.83;99080.59;5130249;27;19938;-65
2022/12/19 05:07:22;;;;;;;;;;;;;;;-2.51;73.18;99081.44;5120878;27;19923;-62
2022/12/19 05:09:51;;;;;;;;;;;;;;;-2.53;72.72;99068.31;5109645;27;19962;-62
2022/12/19 05:12:19;;;;;;;;;;;;;;;-2.48;73.19;99079.19;5107653;27;19973;-62
2022/12/19 05:14:48;;;;;;;;;;;;;;;-2.46;73.74;99063.84;5126558;27;19927;-65
2022/12/19 05:17:15;;;;;;;;;;;;;;;-2.35;72.86;99049.13;5131405;27;19954;-62
2022/12/19 05:19:44;;;;;;;;;;;;;;;-2.36;73.57;99039.53;5129172;27;19939;-63
2022/12/19 05:22:12;;;;;;;;;;;;;;;-2.22;73.45;99027.91;5124674;27;19924;-62
2022/12/19 05:24:40;;;;;;;;;;;;;;;-2.21;73.37;99023.38;5122144;27;20388;-63
2022/12/19 05:27:09;;;;;;;;;;;;;;;-2.24;73.15;99029.09;5109308;28;20656;-64
2022/12/19 05:29:37;;;;;;;;;;;;;;;-2.20;73.50;99020.53;5130010;27;19976;-65
2022/12/19 05:32:06;;;;;;;;;;;;;;;-2.12;73.66;99019.53;5118906;27;19928;-63
2022/12/19 05:34:36;;;;;;;;;;;;;;;-2.11;73.40;99034.47;5130293;27;19950;-65
2022/12/19 05:39:58;;;;;;;;;;;;;;;-2.20;73.38;99049.81;5129435;27;20002;-63
2022/12/19 05:42:26;;;;;;;;;;;;;;;-2.17;73.19;99051.25;5119910;27;19928;-62
2022/12/19 05:44:55;;;;;;;;;;;;;;;-2.26;73.30;99050.59;5120121;27;20341;-70
2022/12/19 05:47:48;;;;;;;;;;;;;;;-2.10;73.48;99041.44;5127000;28;19976;-62
2022/12/19 05:50:18;;;;;;;;;;;;;;;-2.07;73.40;99045.56;5130742;27;19965;-63
2022/12/19 05:52:50;;;;;;;;;;;;;;;-2.01;72.70;99044.72;5130553;27;19923;-63
2022/12/19 05:55:18;;;;;;;;;;;;;;;-2.09;73.08;99045.72;5130298;27;20413;-63
2022/12/19 05:57:47;;;;;;;;;;;;;;;-2.15;73.05;99034.03;5110771;28;19934;-63
2022/12/19 06:00:16;;;;;;;;;;;;;;;-2.17;73.73;99033.44;5125244;27;19932;-62
2022/12/19 06:02:47;;;;;;;;;;;;;;;-2.08;73.78;99028.72;5130189;27;19953;-63
2022/12/19 06:05:15;;;;;;;;;;;;;;;-2.06;73.44;99021.38;5122935;27;19935;-63
2022/12/19 06:07:45;;;;;;;;;;;;;;;-2.07;73.44;99029.56;5103378;28;19923;-64
2022/12/19 06:13:05;;;;;;;;;;;;;;;-1.93;73.51;99036.53;5126084;27;19928;-63
2022/12/19 06:15:34;;;;;;;;;;;;;;;-2.00;73.51;99041.03;5127572;27;19947;-63
2022/12/19 06:18:02;;;;;;;;;;;;;;;-1.99;73.16;99045.34;5121431;27;20432;-69
2022/12/19 06:20:29;;;;;;;;;;;;;;;-1.91;72.56;99045.97;5124106;27;19938;-62
2022/12/19 06:22:59;;;;;;;;;;;;;;;-1.93;73.27;99028.53;5112596;27;19954;-65
2022/12/19 06:25:27;;;;;;;;;;;;;;;-1.94;72.46;99041.03;5084466;28;19928;-63
2022/12/19 06:28:21;;;;;;;;;;;;;;;-1.88;72.45;99039.41;5076893;28;20019;-64
2022/12/19 06:31:13;;;;;;;;;;;;;;;-1.94;72.87;99032.25;5087534;28;19939;-62
2022/12/19 06:33:41;;;;;;;;;;;;;;;-1.94;72.85;99034.91;5081866;28;19923;-63
2022/12/19 06:36:11;;;;;;;;;;;;;;;-1.91;73.29;99039.84;5083831;28;19924;-63
2022/12/19 06:38:40;;;;;;;;;;;;;;;-1.90;73.15;99036.97;5085393;28;19939;-62
2022/12/19 06:44:26;;;;;;;;;;;;;;;-1.92;73.04;99040.84;5084245;28;19924;-62
2022/12/19 06:46:54;;;;;;;;;;;;;;;-1.90;73.21;99042.28;5094342;28;19932;-64
2022/12/19 06:49:22;;;;;;;;;;;;;;;-1.80;73.56;99046.41;5082428;28;19931;-62
2022/12/19 06:51:51;;;;;;;;;;;;;;;-1.82;74.10;99033.28;5089420;28;19928;-64
2022/12/19 06:54:20;;;;;;;;;;;;;;;-1.92;73.89;99036.34;5078843;28;19924;-63
2022/12/19 06:56:48;;;;;;;;;;;;;;;-1.88;74.20;99034.91;5097581;28;19931;-63
2022/12/19 06:59:16;;;;;;;;;;;;;;;-1.79;74.43;99034.72;5079280;28;19928;-68
2022/12/19 07:01:49;;;;;;;;;;;;;;;-1.71;74.33;99039.84;5092396;28;19932;-61
2022/12/19 07:04:20;;;;;;;;;;;;;;;-1.78;74.24;99034.50;5088831;28;19931;-60
2022/12/19 07:06:49;;;;;;;;;;;;;;;-1.64;74.18;99030.84;5088622;28;20015;-63
2022/12/19 07:09:17;;;;;;;;;;;;;;;-1.66;74.15;99021.38;5089289;28;20380;-63
2022/12/19 07:11:46;;;;;;;;;;;;;;;-1.64;74.13;99030.00;5082276;28;19932;-63
2022/12/19 07:14:14;;;;;;;;;;;;;;;-1.64;74.71;99030.00;5072907;28;19940;-63
2022/12/19 07:16:43;;;;;;;;;;;;;;;-1.54;75.26;99029.59;5081832;28;20373;-63
2022/12/19 07:19:11;;;;;;;;;;;;;;;-1.56;74.87;99028.97;5105062;28;19927;-63
2022/12/19 07:21:40;;;;;;;;;;;;;;;-1.62;74.68;99027.97;5087127;28;19963;-62
2022/12/19 07:24:10;;;;;;;;;;;;;;;-1.54;74.99;99029.59;5092800;27;19924;-60
2022/12/19 07:26:38;;;;;;;;;;;;;;;-1.52;75.08;99023.03;5100434;27;19989;-60
2022/12/19 07:29:08;;;;;;;;;;;;;;;-1.32;74.92;99025.69;5112528;27;20380;-60
2022/12/19 07:31:36;;;;;;;;;;;;;;;-1.20;74.00;99026.69;5098082;27;20298;-60
2022/12/19 07:34:05;;;;;;;;;;;;;;;-1.14;74.26;99023.19;5112646;27;19931;-61
2022/12/19 07:36:59;;;;;;;;;;;;;;;-1.22;73.79;99028.75;5103092;27;19927;-60
2022/12/19 07:39:28;;;;;;;;;;;;;;;-1.13;73.82;99026.66;5111564;27;20456;-60
2022/12/19 07:41:59;;;;;;;;;;;;;;;-1.12;73.94;99007.81;5125226;27;20060;-60
2022/12/19 07:44:37;;;;;;;;;;;;;;;-1.31;74.50;99003.34;5108162;27;19984;-60
2022/12/19 07:47:08;;;;;;;;;;;;;;;-1.34;74.71;99009.06;5112279;27;19927;-61
2022/12/19 07:50:01;;;;;;;;;;;;;;;-1.46;75.10;99003.56;5099654;27;20392;-62
2022/12/19 07:52:30;;;;;;;;;;;;;;;-1.24;74.66;99009.47;5125245;27;19923;-60
2022/12/19 07:54:59;;;;;;;;;;;;;;;-1.12;73.95;99010.47;5127292;27;20018;-60
2022/12/19 07:57:27;;;;;;;;;;;;;;;-1.02;74.40;99004.69;5128286;27;20299;-59
2022/12/19 07:59:56;;;;;;;;;;;;;;;-1.06;74.40;99017.63;5113975;27;19924;-60
2022/12/19 08:02:24;;;;;;;;;;;;;;;-1.09;74.44;99014.56;5124006;27;19924;-60
2022/12/19 08:04:53;;;;;;;;;;;;;;;-1.19;74.80;99012.31;5099677;27;19992;-60
2022/12/19 08:07:21;;;;;;;;;;;;;;;-1.16;75.03;99009.25;5124633;27;19923;-60
2022/12/19 08:09:50;;;;;;;;;;;;;;;-1.12;74.94;99006.97;5113299;27;19924;-60
2022/12/19 08:12:18;;;;;;;;;;;;;;;-0.96;74.42;99011.03;5120857;27;20303;-60
2022/12/19 08:14:45;;;;;;;;;;;;;;;-0.99;74.52;99000.78;5101527;27;19924;-60
2022/12/19 08:17:15;;;;;;;;;;;;;;;-1.21;74.16;99002.91;5121510;27;19934;-60
2022/12/19 08:19:48;;;;;;;;;;;;;;;-1.12;74.00;99001.63;5125831;27;19927;-59
2022/12/19 08:22:16;;;;;;;;;;;;;;;-1.02;74.72;99009.19;5130347;27;20010;-60
2022/12/19 08:24:44;;;;;;;;;;;;;;;-1.14;75.49;99004.50;5101076;28;20018;-60
2022/12/19 08:27:12;;;;;;;;;;;;;;;-0.98;74.99;99013.09;5076837;28;20412;-60
2022/12/19 08:29:41;;;;;;;;;;;;;;;-0.94;74.66;99015.13;5080867;28;19970;-60
2022/12/19 08:32:37;;;;;;;;;;;;;;;-0.76;74.24;99022.47;5086415;28;20053;-60
2022/12/19 08:35:06;;;;;;;;;;;;;;;-0.81;74.29;99023.09;5079394;28;20006;-61
2022/12/19 08:37:39;;;;;;;;;;;;;;;-0.68;73.97;99018.75;5086761;28;20303;-60
2022/12/19 08:40:09;;;;;;;;;;;;;;;-0.73;73.88;99014.03;5079175;28;20010;-58
2022/12/19 08:42:38;;;;;;;;;;;;;;;-0.73;73.85;99011.38;5076622;28;19964;-58
2022/12/19 08:45:07;;;;;;;;;;;;;;;-0.80;74.22;99022.09;5086744;28;20426;-60
2022/12/19 08:47:38;;;;;;;;;;;;;;;-0.82;74.68;99013.44;5086315;28;19924;-62
2022/12/19 08:50:30;;;;;;;;;;;;;;;-0.72;74.18;99018.34;5079302;28;19924;-61
2022/12/19 08:52:58;;;;;;;;;;;;;;;-0.59;74.23;99012.13;5082861;28;19924;-59
2022/12/19 08:55:27;;;;;;;;;;;;;;;-0.63;73.30;99011.75;5080612;28;19935;-60
2022/12/19 08:57:56;;;;;;;;;;;;;;;-0.64;73.59;98998.59;5074256;28;19924;-60
2022/12/19 09:00:24;;;;;;;;;;;;;;;-0.61;74.05;99003.53;5083057;28;20387;-60
2022/12/19 09:02:54;;;;;;;;;;;;;;;-0.64;74.38;99010.13;5088298;28;19924;-60
2022/12/19 09:05:23;;;;;;;;;;;;;;;-0.50;74.01;98999.38;5085445;28;19928;-61
2022/12/19 09:08:14;;;;;;;;;;;;;;;-0.52;73.91;99014.78;5084470;28;20043;-61
2022/12/19 09:10:42;;;;;;;;;;;;;;;-0.58;73.62;99011.94;5083626;28;20433;-60
2022/12/19 09:13:11;;;;;;;;;;;;;;;-0.42;73.47;99009.81;5086458;28;19958;-60
2022/12/19 09:15:41;;;;;;;;;;;;;;;-0.34;73.33;99010.38;5083274;28;20015;-60
2022/12/19 09:18:34;;;;;;;;;;;;;;;-0.41;73.14;99008.78;5073401;28;20365;-61
2022/12/19 09:21:07;;;;;;;;;;;;;;;-0.45;73.83;99002.22;5081017;28;20018;-60
2022/12/19 09:23:41;;;;;;;;;;;;;;;-0.35;73.15;99008.72;5083911;28;19924;-60
2022/12/19 09:26:11;;;;;;;;;;;;;;;-0.18;73.16;99013.56;5120146;27;20329;-60
2022/12/19 09:28:39;;;;;;;;;;;;;;;-0.08;72.41;99013.91;5121535;27;19945;-61
2022/12/19 09:31:10;;;;;;;;;;;;;;;-0.06;72.33;99011.84;5125147;27;20371;-62
2022/12/19 09:33:39;;;;;;;;;;;;;;;-0.03;72.33;99008.75;5100485;28;19935;-61
2022/12/19 09:36:14;;;;;;;;;;;;;;;0.03;71.86;99012.41;5130330;27;19927;-60
2022/12/19 09:38:43;;;;;;;;;;;;;;;0.06;72.55;99014.66;5122798;27;19924;-60
2022/12/19 09:41:29;;;;;;;;;;;;;;;0.14;71.67;99011.72;5126767;27;19924;-58
2022/12/19 09:46:54;;;;;;;;;;;;;;;0.06;72.36;99015.47;5123519;27;19927;-61
2022/12/19 09:49:24;;;;;;;;;;;;;;;-0.01;72.11;99012.81;5124991;27;19973;-59
2022/12/19 09:51:57;;;;;;;;;;;;;;;0.02;72.81;99008.91;5125182;27;19927;-60
2022/12/19 09:54:26;;;;;;;;;;;;;;;0.09;72.25;99015.03;5127962;27;20380;-60
2022/12/19 09:56:57;;;;;;;;;;;;;;;-0.05;72.35;99010.81;5126914;27;19924;-60
2022/12/19 09:59:26;;;;;;;;;;;;;;;0.10;71.54;98999.81;5133570;27;19924;-60
2022/12/19 10:02:14;;;;;;;;;;;;;;;0.07;71.99;99000.25;5129856;27;19924;-60
2022/12/19 10:04:43;;;;;;;;;;;;;;;0.18;72.49;99003.03;5103021;27;19931;-60
2022/12/19 10:07:18;;;;;;;;;;;;;;;0.18;72.35;99010.25;5140571;27;19923;-61
2022/12/19 10:10:07;;;;;;;;;;;;;;;0.19;71.71;98993.16;5121269;27;19967;-60
2022/12/19 10:13:00;;;;;;;;;;;;;;;0.25;71.51;98998.47;5118690;27;19924;-61
2022/12/19 10:15:37;;;;;;;;;;;;;;;0.07;72.41;98994.91;5131548;27;19930;-60
2022/12/19 10:18:12;;;;;;;;;;;;;;;0.12;72.07;98982.53;5130989;27;19931;-60
2022/12/19 10:21:07;;;;;;;;;;;;;;;0.23;72.00;98983.69;5130013;27;19938;-58
2022/12/19 10:23:48;;;;;;;;;;;;;;;0.50;71.32;98985.09;5128293;27;19927;-58
2022/12/19 10:26:18;;;;;;;;;;;;;;;0.25;70.96;98997.63;5135213;27;19981;-58
2022/12/19 10:28:56;;;;;;;;;;;;;;;0.36;70.88;99002.28;5113103;27;19932;-58
2022/12/19 10:31:27;;;;;;;;;;;;;;;0.19;71.25;98987.81;5128208;27;19927;-61
2022/12/19 10:33:57;;;;;;;;;;;;;;;0.41;71.34;98975.72;5118727;27;19931;-60
2022/12/19 10:36:26;;;;;;;;;;;;;;;0.56;70.91;98988.75;5127530;27;20070;-60
2022/12/19 10:39:17;;;;;;;;;;;;;;;0.62;70.47;98989.72;5130472;27;19934;-61
2022/12/19 10:41:47;;;;;;;;;;;;;;;0.46;70.48;98988.41;5115660;27;19946;-60
2022/12/19 10:44:18;;;;;;;;;;;;;;;0.63;70.37;98988.66;5121869;27;19930;-58
2022/12/19 10:46:47;;;;;;;;;;;;;;;0.83;70.65;98983.13;5125651;27;20305;-60
2022/12/19 10:49:18;;;;;;;;;;;;;;;0.56;70.84;98985.25;5127947;27;19932;-61
2022/12/19 10:51:53;;;;;;;;;;;;;;;0.66;71.12;98989.06;5121171;27;20390;-60
2022/12/19 10:54:23;;;;;;;;;;;;;;;0.85;70.81;98970.34;5117878;27;20010;-64
2022/12/19 10:57:12;;;;;;;;;;;;;;;0.96;71.19;98967.75;5111585;27;20360;-61
2022/12/19 11:00:14;;;;;;;;;;;;;;;1.00;70.03;98976.97;5134024;27;19931;-60
2022/12/19 11:02:43;;;;;;;;;;;;;;;1.01;69.48;98969.75;5127250;27;19923;-61
2022/12/19 11:05:25;;;;;;;;;;;;;;;1.05;69.78;98955.69;5127824;27;19944;-59
2022/12/19 11:08:02;;;;;;;;;;;;;;;0.94;69.66;98951.09;5130587;27;20018;-58
2022/12/19 11:10:36;;;;;;;;;;;;;;;1.14;69.34;98940.16;5127114;27;19932;-59
2022/12/19 11:13:28;;;;;;;;;;;;;;;1.07;69.48;98933.28;5127065;27;19930;-60
2022/12/19 11:16:42;;;;;;;;;;;;;;;0.99;69.71;98929.03;5103451;27;19969;-59
2022/12/19 11:19:32;;;;;;;;;;;;;;;1.07;69.58;98920.72;5107047;27;19966;-59
2022/12/19 11:22:26;;;;;;;;;;;;;;;0.94;70.02;98915.50;5119759;27;20269;-61
2022/12/19 11:25:20;;;;;;;;;;;;;;;0.93;70.15;98914.69;5119920;27;20951;-61
2022/12/19 11:28:13;;;;;;;;;;;;;;;1.09;70.17;98912.44;5127045;27;19934;-60
2022/12/19 11:31:02;;;;;;;;;;;;;;;1.18;69.86;98927.16;5116754;27;19960;-58
2022/12/19 11:33:53;;;;;;;;;;;;;;;1.04;70.46;98916.59;5123717;27;19923;-59
2022/12/19 11:36:26;;;;;;;;;;;;;;;0.90;70.53;98919.66;5106899;27;19939;-59
2022/12/19 11:39:19;;;;;;;;;;;;;;;1.08;70.87;98922.34;5126271;27;19981;-60
2022/12/19 11:41:48;;;;;;;;;;;;;;;1.18;70.36;98917.28;5121555;27;19927;-59
2022/12/19 11:44:21;;;;;;;;;;;;;;;1.18;70.23;98906.56;5126476;27;19924;-59
2022/12/19 11:46:52;;;;;;;;;;;;;;;1.39;69.98;98901.75;5102036;27;19946;-58
2022/12/19 11:49:23;;;;;;;;;;;;;;;1.49;69.59;98902.84;5123272;27;20033;-59
2022/12/19 11:51:52;;;;;;;;;;;;;;;1.52;69.48;98899.69;5115376;27;20503;-62
2022/12/19 11:54:22;;;;;;;;;;;;;;;1.50;68.88;98890.28;5112464;27;19972;-61
2022/12/19 11:56:50;;;;;;;;;;;;;;;1.51;68.97;98898.06;5125144;27;19946;-59
2022/12/19 11:59:22;;;;;;;;;;;;;;;1.51;68.96;98887.34;5090002;28;19928;-59
2022/12/19 12:01:59;;;;;;;;;;;;;;;1.65;68.39;98876.44;5120076;27;19972;-59
2022/12/19 12:04:46;;;;;;;;;;;;;;;1.56;68.66;98867.91;5123087;27;19927;-58
2022/12/19 12:07:40;;;;;;;;;;;;;;;1.64;68.43;98874.78;5104233;27;19928;-59
2022/12/19 12:10:28;;;;;;;;;;;;;;;1.76;68.85;98871.13;5116065;27;19950;-59
2022/12/19 12:13:18;;;;;;;;;;;;;;;1.82;68.97;98872.06;5122920;27;19984;-61
2022/12/19 12:16:09;;;;;;;;;;;;;;;1.88;69.23;98868.44;5115688;27;19923;-59
2022/12/19 12:19:03;;;;;;;;;;;;;;;1.84;68.51;98872.63;5119833;27;19931;-59
2022/12/19 12:22:00;;;;;;;;;;;;;;;1.92;68.45;98858.91;5122996;27;20307;-58
2022/12/19 12:24:49;;;;;;;;;;;;;;;1.86;68.68;98843.72;5127781;27;19988;-59
2022/12/19 12:27:41;;;;;;;;;;;;;;;1.89;68.19;98827.19;5101262;27;19928;-62
2022/12/19 12:30:33;;;;;;;;;;;;;;;1.80;68.73;98836.63;5104086;27;19930;-59
2022/12/19 12:33:29;;;;;;;;;;;;;;;1.91;68.13;98835.00;5117015;27;19955;-61
2022/12/19 12:36:22;;;;;;;;;;;;;;;1.84;69.00;98819.03;5115492;27;20392;-59
2022/12/19 12:39:12;;;;;;;;;;;;;;;1.86;68.87;98819.59;5101084;28;19924;-59
2022/12/19 12:42:03;;;;;;;;;;;;;;;1.69;69.70;98811.44;5119488;27;20023;-59
2022/12/19 12:44:32;;;;;;;;;;;;;;;1.87;69.90;98805.19;5110777;27;19938;-59
2022/12/19 12:47:01;;;;;;;;;;;;;;;1.95;69.46;98809.38;5112979;27;19984;-61
2022/12/19 12:49:35;;;;;;;;;;;;;;;1.96;69.08;98816.34;5124947;27;19930;-59
2022/12/19 12:52:04;;;;;;;;;;;;;;;1.97;68.58;98817.97;5123729;27;19969;-59
2022/12/19 12:54:33;;;;;;;;;;;;;;;2.04;69.32;98830.22;5123398;27;19942;-59
2022/12/19 12:57:02;;;;;;;;;;;;;;;2.12;68.84;98837.09;5128012;27;20089;-59
2022/12/19 12:59:33;;;;;;;;;;;;;;;2.06;68.49;98854.13;5130508;27;20383;-59
2022/12/19 13:02:01;;;;;;;;;;;;;;;2.00;69.25;98850.50;5096965;28;20170;-59
2022/12/19 13:04:35;;;;;;;;;;;;;;;2.02;69.60;98837.66;5107324;27;20414;-59
2022/12/19 13:07:12;;;;;;;;;;;;;;;1.83;68.95;98817.41;5112077;27;19946;-61
2022/12/19 13:13:01;;;;;;;;;;;;;;;2.06;68.92;98812.03;5125256;27;20440;-59
2022/12/19 13:15:33;;;;;;;;;;;;;;;2.08;69.02;98796.56;5125243;27;19977;-59
2022/12/19 13:18:04;;;;;;;;;;;;;;;2.09;68.68;98784.78;5111031;27;20391;-61
2022/12/19 13:20:41;;;;;;;;;;;;;;;2.01;69.03;98776.28;5128860;27;19934;-61
2022/12/19 13:23:20;;;;;;;;;;;;;;;2.12;69.48;98780.00;5122184;27;19958;-58
2022/12/19 13:25:50;;;;;;;;;;;;;;;2.14;69.61;98791.31;5118745;27;19928;-59
2022/12/19 13:28:38;;;;;;;;;;;;;;;2.17;69.27;98793.50;5089755;28;20181;-58
2022/12/19 13:31:17;;;;;;;;;;;;;;;2.23;69.04;98795.25;5098076;28;20015;-62
2022/12/19 13:34:14;;;;;;;;;;;;;;;2.30;68.96;98793.25;5099077;28;20339;-59
2022/12/19 13:36:54;;;;;;;;;;;;;;;2.38;68.44;98800.94;5101095;28;20449;-59
2022/12/19 13:39:47;;;;;;;;;;;;;;;2.37;68.42;98812.72;5101082;28;19924;-61
2022/12/19 13:45:37;;;;;;;;;;;;;;;2.41;68.98;98827.28;5100284;28;19924;-61
2022/12/19 13:48:05;;;;;;;;;;;;;;;2.31;68.61;98825.19;5106867;28;19924;-58